Time;durP1;ratioP1;P1;durP2;ratioP2;P2;SDS_P1;SDS_P2;PMS_P1;PMS_P2;Temp;Humidity;BMP_temperature;BMP_pressure;BME280_temperature;BME280_humidity;BME280_pressure;Samples;Min_cycle;Max_cycle;Signal;HPM_P1;HPM_P2
2023/05/08 00:01:30;;;;;;;3.20;1.70;;;;;;;11.69;33.88;101488.13;112084;1233;72512;-89
2023/05/08 00:03:57;;;;;;;3.70;2.00;;;;;;;11.68;34.12;101490.22;112066;1232;61085;-93
2023/05/08 00:06:26;;;;;;;4.20;1.90;;;;;;;11.65;34.26;101496.92;111326;1232;61121;-89
2023/05/08 00:08:54;;;;;;;3.90;2.10;;;;;;;11.61;34.33;101496.69;111177;1234;74152;-90
2023/05/08 00:11:21;;;;;;;4.10;2.10;;;;;;;11.58;34.29;101495.94;110923;1239;71823;-92
2023/05/08 00:13:49;;;;;;;4.00;2.00;;;;;;;11.54;34.34;101495.48;111190;1234;72571;-95
2023/05/08 00:16:16;;;;;;;3.90;2.00;;;;;;;11.50;34.42;101498.16;111221;1232;61213;-93
2023/05/08 00:18:43;;;;;;;4.40;2.20;;;;;;;11.46;34.53;101497.98;111188;1233;61092;-89
2023/05/08 00:21:10;;;;;;;3.60;2.10;;;;;;;11.42;34.75;101500.42;111209;1234;73966;-91
2023/05/08 00:23:37;;;;;;;4.00;1.90;;;;;;;11.40;34.94;101500.33;111104;1234;72206;-91
2023/05/08 00:26:04;;;;;;;4.00;2.20;;;;;;;11.36;34.90;101497.58;110960;1234;72499;-92
2023/05/08 00:28:31;;;;;;;4.20;1.90;;;;;;;11.31;34.83;101500.91;111199;1233;61345;-90
2023/05/08 00:31:00;;;;;;;3.70;2.00;;;;;;;11.29;34.87;101503.76;111362;1233;61522;-90
2023/05/08 00:33:27;;;;;;;3.50;1.90;;;;;;;11.28;35.00;101501.80;111059;1234;74944;-93
2023/05/08 00:36:01;;;;;;;4.50;2.30;;;;;;;11.26;34.97;101504.03;111061;1234;73278;-92
2023/05/08 00:38:32;;;;;;;4.70;2.10;;;;;;;11.24;34.89;101509.65;111088;1233;72978;-92
2023/05/08 00:41:00;;;;;;;3.60;2.00;;;;;;;11.23;35.04;101513.32;111089;1236;61100;-92
2023/05/08 00:43:28;;;;;;;3.60;2.30;;;;;;;11.22;35.15;101513.29;111082;1236;61134;-91
2023/05/08 00:45:55;;;;;;;3.90;2.20;;;;;;;11.19;35.29;101509.29;111048;1233;74763;-92
2023/05/08 00:48:23;;;;;;;3.40;1.90;;;;;;;11.15;35.37;101510.55;111003;1234;71136;-92
2023/05/08 00:50:51;;;;;;;4.00;1.80;;;;;;;11.12;35.30;101508.55;111123;1233;71479;-92
2023/05/08 00:53:18;;;;;;;4.30;2.10;;;;;;;11.08;35.38;101511.05;110938;1238;61154;-92
2023/05/08 00:55:45;;;;;;;3.10;1.50;;;;;;;11.04;35.40;101508.14;111093;1233;61240;-92
2023/05/08 00:58:12;;;;;;;4.70;1.90;;;;;;;10.99;35.55;101508.73;110884;1234;75626;-91
2023/05/08 01:00:40;;;;;;;4.10;2.20;;;;;;;10.96;35.75;101509.23;111057;1234;72211;-92
2023/05/08 01:03:08;;;;;;;3.80;1.90;;;;;;;10.95;35.89;101512.00;111096;1234;72504;-92
2023/05/08 01:05:36;;;;;;;6.50;2.70;;;;;;;10.95;35.95;101508.26;111173;1232;61236;-93
2023/05/08 01:08:03;;;;;;;6.10;2.20;;;;;;;10.93;35.73;101511.52;111180;1233;61142;-92
2023/05/08 01:10:53;;;;;;;4.50;2.00;;;;;;;10.91;35.94;101515.78;110903;1238;73585;-94
2023/05/08 01:13:55;;;;;;;3.90;1.90;;;;;;;10.91;35.99;101512.46;111129;1234;70639;-93
2023/05/08 01:16:43;;;;;;;3.60;2.00;;;;;;;10.91;35.96;101506.84;110902;1233;70491;-91
2023/05/08 01:19:47;;;;;;;3.70;1.90;;;;;;;10.90;35.98;101505.23;111122;1236;61050;-92
2023/05/08 01:22:31;;;;;;;5.30;2.10;;;;;;;10.87;35.74;101509.13;110969;1234;61176;-94
2023/05/08 01:25:23;;;;;;;3.90;1.90;;;;;;;10.87;36.16;101507.09;111080;1234;73765;-92
2023/05/08 01:28:33;;;;;;;2.80;1.80;;;;;;;10.87;36.04;101509.39;111073;1234;72822;-94
2023/05/08 01:31:38;;;;;;;4.70;2.30;;;;;;;10.86;36.06;101511.94;110979;1234;73751;-92
2023/05/08 01:34:10;;;;;;;5.40;2.30;;;;;;;10.86;35.89;101517.66;111084;1233;60422;-93
2023/05/08 01:37:06;;;;;;;3.90;2.00;;;;;;;10.88;35.91;101521.52;110884;1234;61096;-92
2023/05/08 01:39:54;;;;;;;6.00;2.20;;;;;;;10.88;36.21;101525.23;111022;1237;75032;-90
2023/05/08 01:42:30;;;;;;;4.90;2.00;;;;;;;10.86;35.98;101524.66;110805;1234;71823;-91
2023/05/08 01:45:01;;;;;;;5.40;2.10;;;;;;;10.86;36.10;101524.20;111120;1234;70401;-92
2023/05/08 01:47:29;;;;;;;3.80;2.10;;;;;;;10.84;36.06;101525.02;111123;1232;61272;-92
2023/05/08 01:50:06;;;;;;;4.40;2.10;;;;;;;10.84;36.01;101529.10;111056;1233;59692;-94
2023/05/08 01:52:50;;;;;;;4.20;2.10;;;;;;;10.84;36.27;101532.05;111019;1237;75619;-93
2023/05/08 01:55:20;;;;;;;4.60;2.00;;;;;;;10.83;36.13;101532.02;111157;1235;70606;-93
2023/05/08 01:57:48;;;;;;;4.30;2.10;;;;;;;10.83;36.14;101532.93;111158;1233;71379;-92
2023/05/08 02:00:17;;;;;;;5.20;2.00;;;;;;;10.82;36.21;101531.83;110904;1233;59175;-91
2023/05/08 02:02:46;;;;;;;4.00;2.10;;;;;;;10.82;36.04;101531.71;110844;1239;61143;-91
2023/05/08 02:05:14;;;;;;;4.10;2.20;;;;;;;10.82;36.06;101537.59;111148;1234;74150;-93
2023/05/08 02:07:42;;;;;;;3.80;1.90;;;;;;;10.82;35.88;101538.45;110894;1233;72782;-91
2023/05/08 02:10:09;;;;;;;4.40;2.10;;;;;;;10.82;36.22;101540.64;110920;1234;72282;-92
2023/05/08 02:12:37;;;;;;;3.60;1.90;;;;;;;10.80;36.09;101541.78;111059;1233;61236;-91
2023/05/08 02:15:04;;;;;;;3.60;2.10;;;;;;;10.79;36.25;101544.23;110928;1233;61128;-92
2023/05/08 02:17:32;;;;;;;4.50;2.00;;;;;;;10.78;36.22;101549.38;110954;1233;74116;-92
2023/05/08 02:19:59;;;;;;;3.70;2.00;;;;;;;10.76;36.11;101552.02;110931;1233;73051;-91
2023/05/08 02:22:26;;;;;;;3.70;2.10;;;;;;;10.73;36.19;101553.46;111079;1234;72377;-93
2023/05/08 02:24:54;;;;;;;4.30;2.10;;;;;;;10.71;36.39;101553.08;111070;1234;61064;-93
2023/05/08 02:27:22;;;;;;;5.60;2.30;;;;;;;10.70;36.48;101551.89;110901;1232;59376;-92
2023/05/08 02:29:51;;;;;;;3.90;2.10;;;;;;;10.67;36.70;101556.84;111169;1234;75637;-94
2023/05/08 02:32:18;;;;;;;4.80;2.40;;;;;;;10.64;37.03;101556.92;111196;1233;72760;-93
2023/05/08 02:34:47;;;;;;;3.70;2.10;;;;;;;10.61;36.95;101557.02;111101;1233;73416;-93
2023/05/08 02:37:29;;;;;;;3.50;2.00;;;;;;;10.59;37.12;101562.30;111120;1233;59847;-92
2023/05/08 02:39:56;;;;;;;5.80;2.30;;;;;;;10.58;37.11;101564.80;110831;1232;61190;-91
2023/05/08 02:42:23;;;;;;;3.50;2.10;;;;;;;10.57;37.00;101565.44;111181;1234;74431;-90
2023/05/08 02:44:50;;;;;;;5.50;2.20;;;;;;;10.57;36.98;101569.16;110878;1234;70796;-91
2023/05/08 02:47:23;;;;;;;4.20;2.00;;;;;;;10.56;37.14;101570.86;110905;1239;72650;-90
2023/05/08 02:49:55;;;;;;;4.40;2.30;;;;;;;10.57;36.95;101570.73;110823;1233;61083;-91
2023/05/08 02:52:28;;;;;;;4.30;2.50;;;;;;;10.58;36.98;101573.30;111109;1234;61123;-93
2023/05/08 02:55:02;;;;;;;4.30;2.30;;;;;;;10.56;36.91;101575.34;110894;1234;74736;-92
2023/05/08 02:57:39;;;;;;;5.20;2.40;;;;;;;10.55;36.98;101576.46;111150;1234;72998;-90
2023/05/08 03:00:15;;;;;;;3.80;2.00;;;;;;;10.56;36.86;101576.62;111099;1233;71017;-92
2023/05/08 03:02:47;;;;;;;3.50;2.10;;;;;;;10.58;36.81;101576.67;111139;1233;61151;-91
2023/05/08 03:05:28;;;;;;;4.60;2.20;;;;;;;10.60;36.96;101582.80;111157;1234;59175;-91
2023/05/08 03:07:58;;;;;;;3.90;2.30;;;;;;;10.63;36.83;101585.49;111115;1234;74791;-92
2023/05/08 03:10:30;;;;;;;5.40;2.10;;;;;;;10.64;36.64;101588.66;111105;1235;73132;-92
2023/05/08 03:12:58;;;;;;;5.50;2.10;;;;;;;10.66;36.67;101593.80;110973;1234;72596;-90
2023/05/08 03:15:32;;;;;;;3.80;2.00;;;;;;;10.68;36.55;101594.05;110920;1232;61338;-91
2023/05/08 03:18:03;;;;;;;4.70;2.00;;;;;;;10.71;36.60;101593.86;111171;1234;61348;-92
2023/05/08 03:20:31;;;;;;;5.40;2.20;;;;;;;10.73;36.57;101596.80;111055;1233;74677;-90
2023/05/08 03:22:58;;;;;;;4.60;2.20;;;;;;;10.75;36.58;101602.68;111119;1234;73672;-90
2023/05/08 03:25:25;;;;;;;3.40;2.00;;;;;;;10.77;36.40;101603.94;110669;1234;73723;-90
2023/05/08 03:27:51;;;;;;;5.40;2.40;;;;;;;10.78;36.28;101607.70;110933;1234;61085;-92
2023/05/08 03:30:18;;;;;;;3.50;2.20;;;;;;;10.81;36.32;101608.57;110863;1234;61227;-92
2023/05/08 03:32:53;;;;;;;4.20;2.50;;;;;;;10.84;36.36;101605.65;111043;1234;74740;-93
2023/05/08 03:35:20;;;;;;;5.30;2.70;;;;;;;10.86;36.43;101606.77;110879;1236;72472;-93
2023/05/08 03:37:47;;;;;;;4.30;2.40;;;;;;;10.90;36.24;101611.55;111102;1234;74611;-93
2023/05/08 03:40:14;;;;;;;4.60;2.40;;;;;;;10.92;36.10;101610.15;110963;1232;61194;-92
2023/05/08 03:42:41;;;;;;;4.00;2.30;;;;;;;10.95;36.36;101614.88;111012;1239;61309;-93
2023/05/08 03:45:08;;;;;;;3.60;2.10;;;;;;;10.98;36.36;101616.59;110886;1234;73862;-93
2023/05/08 03:47:36;;;;;;;4.30;2.10;;;;;;;11.00;36.10;101618.02;110961;1234;71048;-91
2023/05/08 03:50:04;;;;;;;4.30;2.20;;;;;;;11.03;35.96;101622.05;111105;1233;71873;-90
2023/05/08 03:52:32;;;;;;;4.60;2.80;;;;;;;11.06;36.11;101625.21;111208;1233;61091;-91
2023/05/08 03:55:03;;;;;;;5.40;2.40;;;;;;;11.10;35.98;101631.14;111090;1232;61162;-92
2023/05/08 03:57:38;;;;;;;4.50;2.20;;;;;;;11.13;36.10;101629.44;111033;1234;73521;-91
2023/05/08 04:00:14;;;;;;;4.20;2.00;;;;;;;11.18;35.82;101630.50;110828;1238;71010;-92
2023/05/08 04:02:51;;;;;;;3.50;2.30;;;;;;;11.23;35.71;101635.09;111174;1235;73044;-92
2023/05/08 04:05:20;;;;;;;3.60;2.30;;;;;;;11.26;35.69;101634.16;111029;1237;61236;-91
2023/05/08 04:08:06;;;;;;;5.00;2.80;;;;;;;11.29;35.59;101640.20;111156;1232;60434;-91
2023/05/08 04:10:43;;;;;;;4.60;2.10;;;;;;;11.35;35.57;101643.05;110928;1233;72906;-91
2023/05/08 04:13:14;;;;;;;5.10;2.10;;;;;;;11.38;35.22;101648.41;111231;1234;70811;-92
2023/05/08 04:15:51;;;;;;;5.60;2.60;;;;;;;11.39;35.32;101646.91;110988;1238;72472;-91
2023/05/08 04:18:28;;;;;;;4.50;2.20;;;;;;;11.44;35.68;101652.25;110879;1234;61138;-93
2023/05/08 04:20:56;;;;;;;3.40;2.10;;;;;;;11.50;35.44;101648.68;110908;1234;61079;-90
2023/05/08 04:23:29;;;;;;;4.00;2.00;;;;;;;11.55;35.09;101649.83;110874;1234;75075;-89
2023/05/08 04:25:56;;;;;;;4.30;2.20;;;;;;;11.59;35.32;101653.20;110899;1235;72531;-90
2023/05/08 04:28:23;;;;;;;4.70;2.40;;;;;;;11.62;35.02;101652.28;110819;1240;73602;-91
2023/05/08 04:30:51;;;;;;;4.40;2.40;;;;;;;11.63;34.60;101655.63;110978;1235;61245;-91
2023/05/08 04:33:18;;;;;;;5.90;2.30;;;;;;;11.65;34.87;101662.36;111170;1233;61181;-90
2023/05/08 04:35:46;;;;;;;4.90;2.20;;;;;;;11.69;34.82;101662.17;111230;1234;74282;-92
2023/05/08 04:38:13;;;;;;;4.30;2.50;;;;;;;11.73;34.64;101663.37;110981;1234;72294;-93
2023/05/08 04:40:41;;;;;;;5.50;2.80;;;;;;;11.74;34.64;101665.86;111152;1234;71579;-92
2023/05/08 04:43:09;;;;;;;5.30;2.40;;;;;;;11.75;34.80;101664.85;111305;1234;58932;-93
2023/05/08 04:45:37;;;;;;;4.70;2.80;;;;;;;11.79;34.63;101665.52;111196;1232;60271;-92
2023/05/08 04:48:04;;;;;;;5.60;2.60;;;;;;;11.83;34.64;101665.07;111149;1234;73278;-92
2023/05/08 04:50:31;;;;;;;5.30;2.80;;;;;;;11.87;34.35;101665.88;111125;1234;73752;-90
2023/05/08 04:52:58;;;;;;;4.50;2.40;;;;;;;11.91;34.44;101668.59;111142;1234;70712;-90
2023/05/08 04:55:26;;;;;;;3.40;2.30;;;;;;;11.96;34.44;101666.91;111202;1233;61216;-89
2023/05/08 04:57:52;;;;;;;5.60;2.60;;;;;;;12.03;34.42;101668.96;111205;1234;61229;-88
2023/05/08 05:00:19;;;;;;;3.60;2.30;;;;;;;12.07;34.08;101672.41;111208;1234;72478;-88
2023/05/08 05:02:47;;;;;;;4.90;2.50;;;;;;;12.13;34.26;101672.95;111566;1235;72724;-92
2023/05/08 05:05:16;;;;;;;4.00;2.40;;;;;;;12.19;34.02;101669.70;111610;1234;72424;-88
2023/05/08 05:07:44;;;;;;;5.30;2.70;;;;;;;12.25;34.11;101667.48;111383;1234;60530;-89
2023/05/08 05:10:11;;;;;;;5.70;2.50;;;;;;;12.31;34.31;101664.66;111351;1234;61172;-91
2023/05/08 05:12:38;;;;;;;6.40;2.40;;;;;;;12.35;33.41;101668.20;111187;1237;74553;-91
2023/05/08 05:15:06;;;;;;;4.70;2.30;;;;;;;12.37;33.59;101669.84;111254;1234;151040;-93
2023/05/08 05:17:34;;;;;;;4.90;2.50;;;;;;;12.36;33.62;101671.88;111500;1234;70662;-92
2023/05/08 05:20:01;;;;;;;5.20;2.80;;;;;;;12.42;33.82;101672.36;111298;1234;61307;-93
2023/05/08 05:22:29;;;;;;;4.40;2.40;;;;;;;12.49;33.72;101672.37;111288;1233;61340;-91
2023/05/08 05:24:56;;;;;;;4.30;2.20;;;;;;;12.56;33.61;101674.14;111143;1234;75360;-92
2023/05/08 05:27:23;;;;;;;5.40;2.70;;;;;;;12.61;33.32;101681.08;111396;1233;70899;-92
2023/05/08 05:29:52;;;;;;;5.40;2.90;;;;;;;12.65;33.33;101681.42;111179;1233;71091;-92
2023/05/08 05:32:19;;;;;;;5.00;2.70;;;;;;;12.68;33.33;101686.30;111202;1234;59602;-91
2023/05/08 05:34:47;;;;;;;5.80;2.40;;;;;;;12.70;33.61;101685.04;111194;1235;60438;-91
2023/05/08 05:37:14;;;;;;;5.30;2.80;;;;;;;12.75;33.65;101686.67;111222;1234;74860;-91
2023/05/08 05:39:41;;;;;;;4.80;2.70;;;;;;;12.81;33.19;101686.23;111199;1234;73101;-93
2023/05/08 05:42:08;;;;;;;4.70;2.70;;;;;;;12.81;32.83;101685.81;110989;1235;70689;-89
2023/05/08 05:44:36;;;;;;;6.10;3.00;;;;;;;12.82;32.95;101689.63;111176;1233;61288;-93
2023/05/08 05:47:04;;;;;;;4.90;2.70;;;;;;;12.85;33.49;101685.54;110934;1234;60976;-90
2023/05/08 05:49:33;;;;;;;5.70;3.00;;;;;;;12.92;33.41;101688.82;111138;1234;74572;-89
2023/05/08 05:52:00;;;;;;;4.70;2.70;;;;;;;12.98;33.08;101685.79;111081;1235;72679;-91
2023/05/08 05:54:28;;;;;;;4.70;2.50;;;;;;;13.03;33.01;101688.54;111075;1233;70311;-91
2023/05/08 05:56:55;;;;;;;3.90;2.30;;;;;;;13.10;33.21;101684.20;111216;1234;61293;-91
2023/05/08 05:59:22;;;;;;;4.40;3.00;;;;;;;13.15;32.65;101682.52;111168;1234;61239;-89
2023/05/08 06:01:49;;;;;;;3.50;2.30;;;;;;;13.17;32.63;101685.49;111117;1234;74576;-89
2023/05/08 06:04:17;;;;;;;3.80;2.40;;;;;;;13.20;32.63;101685.53;111126;1234;71959;-92
2023/05/08 06:06:44;;;;;;;5.00;3.20;;;;;;;13.24;32.47;101680.50;111178;1233;72461;-89
2023/05/08 06:09:12;;;;;;;9.70;2.90;;;;;;;13.26;32.28;101678.55;111138;1237;61824;-89
2023/05/08 06:11:39;;;;;;;4.50;2.40;;;;;;;13.32;32.33;101682.36;111148;1234;61065;-92
2023/05/08 06:14:06;;;;;;;4.30;2.50;;;;;;;13.39;32.30;101679.16;111136;1234;73694;-90
2023/05/08 06:16:34;;;;;;;4.50;2.60;;;;;;;13.44;31.73;101679.23;111193;1235;70459;-92
2023/05/08 06:19:01;;;;;;;5.70;2.80;;;;;;;13.51;32.03;101680.13;111200;1234;71521;-91
2023/05/08 06:21:28;;;;;;;5.20;3.00;;;;;;;13.60;31.83;101681.48;111190;1234;59294;-93
2023/05/08 06:23:55;;;;;;;4.10;2.50;;;;;;;13.75;31.78;101679.77;111201;1234;61101;-92
2023/05/08 06:26:22;;;;;;;6.40;2.90;;;;;;;13.88;31.45;101673.00;111187;1232;73897;-90
2023/05/08 06:28:49;;;;;;;5.00;2.70;;;;;;;13.97;31.44;101670.52;111227;1234;71929;-91
2023/05/08 06:31:18;;;;;;;4.00;2.40;;;;;;;14.09;31.62;101668.18;111212;1234;71773;-91
2023/05/08 06:33:45;;;;;;;4.40;2.50;;;;;;;14.22;31.30;101668.58;111266;1234;60995;-89
2023/05/08 06:36:12;;;;;;;5.10;2.50;;;;;;;14.31;31.18;101670.31;111254;1236;60316;-90
2023/05/08 06:38:39;;;;;;;4.30;2.50;;;;;;;14.38;30.82;101667.00;111306;1236;73564;-90
2023/05/08 06:41:06;;;;;;;5.00;2.40;;;;;;;14.43;30.56;101669.20;111311;1234;71494;-91
2023/05/08 06:43:33;;;;;;;5.20;2.50;;;;;;;14.53;31.14;101664.95;110943;1238;73760;-90
2023/05/08 06:46:00;;;;;;;5.00;2.70;;;;;;;14.68;31.09;101665.31;111242;1234;59989;-91
2023/05/08 06:48:27;;;;;;;5.40;2.40;;;;;;;14.85;30.86;101666.08;111222;1235;61200;-89
2023/05/08 06:50:55;;;;;;;5.10;2.70;;;;;;;15.01;30.60;101668.39;111235;1236;74638;-90
2023/05/08 06:53:23;;;;;;;5.20;2.80;;;;;;;15.15;30.51;101669.00;111292;1235;71564;-92
2023/05/08 06:55:50;;;;;;;4.20;2.50;;;;;;;15.29;30.25;101664.56;111310;1234;72948;-91
2023/05/08 06:58:17;;;;;;;7.20;2.90;;;;;;;15.36;29.51;101671.66;111056;1233;61284;-90
2023/05/08 07:00:44;;;;;;;6.30;2.80;;;;;;;15.40;30.05;101668.28;111156;1234;60279;-92
2023/05/08 07:03:11;;;;;;;3.70;2.50;;;;;;;15.48;29.23;101666.98;111156;1236;72816;-88
2023/05/08 07:05:38;;;;;;;4.20;2.60;;;;;;;15.41;28.59;101666.67;111205;1237;71827;-88
2023/05/08 07:08:06;;;;;;;4.80;2.70;;;;;;;15.31;28.92;101665.23;111097;1234;73666;-92
2023/05/08 07:10:33;;;;;;;3.50;2.20;;;;;;;15.27;29.40;101666.11;111103;1234;61322;-91
2023/05/08 07:12:59;;;;;;;4.10;2.80;;;;;;;15.34;29.83;101670.36;111101;1236;61202;-87
2023/05/08 07:15:27;;;;;;;6.20;3.00;;;;;;;15.45;29.51;101667.02;111224;1235;73745;-89
2023/05/08 07:17:55;;;;;;;4.70;2.80;;;;;;;15.57;29.22;101665.08;111128;1236;72369;-89
2023/05/08 07:20:23;;;;;;;4.30;2.60;;;;;;;15.66;29.30;101663.78;111112;1235;72975;-90
2023/05/08 07:22:49;;;;;;;5.60;3.10;;;;;;;15.79;29.31;101664.16;111145;1235;61255;-91
2023/05/08 07:25:16;;;;;;;5.70;3.20;;;;;;;15.79;27.79;101662.50;111228;1235;61091;-90
2023/05/08 07:27:44;;;;;;;5.00;2.60;;;;;;;15.68;28.14;101660.79;111165;1236;73769;-91
2023/05/08 07:30:11;;;;;;;5.20;2.90;;;;;;;15.75;28.69;101658.39;111162;1235;72837;-92
2023/05/08 07:32:38;;;;;;;5.00;2.80;;;;;;;15.92;28.87;101653.80;110985;1235;73032;-90
2023/05/08 07:35:08;;;;;;;5.70;2.70;;;;;;;16.13;28.22;101649.43;111136;1233;61111;-90
2023/05/08 07:37:39;;;;;;;5.00;2.70;;;;;;;16.27;27.88;101653.80;111209;1235;61322;-92
2023/05/08 07:40:07;;;;;;;4.00;2.90;;;;;;;16.34;27.52;101655.96;111257;1234;74897;-92
2023/05/08 07:42:42;;;;;;;6.20;3.00;;;;;;;16.38;27.27;101654.23;111059;1236;72640;-92
2023/05/08 07:45:10;;;;;;;7.20;3.20;;;;;;;16.33;26.94;101656.50;111044;1235;72361;-90
2023/05/08 07:47:38;;;;;;;4.40;2.80;;;;;;;16.33;27.13;101657.27;111182;1236;61194;-91
2023/05/08 07:50:05;;;;;;;5.00;2.60;;;;;;;16.40;26.68;101655.91;111275;1234;59120;-91
2023/05/08 07:52:32;;;;;;;7.60;3.10;;;;;;;16.38;26.57;101657.42;111181;1236;75612;-90
2023/05/08 07:54:59;;;;;;;6.20;2.90;;;;;;;16.37;27.07;101659.04;111234;1235;70761;-90
2023/05/08 07:57:26;;;;;;;5.10;2.90;;;;;;;16.44;27.40;101655.06;111152;1236;71538;-89
2023/05/08 07:59:53;;;;;;;5.40;2.70;;;;;;;16.46;26.47;101654.41;111203;1234;61300;-90
2023/05/08 08:02:20;;;;;;;6.40;2.70;;;;;;;16.50;26.79;101654.19;111068;1235;61209;-90
2023/05/08 08:04:48;;;;;;;4.50;2.60;;;;;;;16.59;26.94;101651.77;110940;1239;74119;-92
2023/05/08 08:07:15;;;;;;;4.00;2.50;;;;;;;16.70;26.64;101651.91;110797;1234;72466;-91
2023/05/08 08:09:43;;;;;;;4.00;2.50;;;;;;;16.85;26.35;101651.79;110942;1234;71480;-90
2023/05/08 08:12:10;;;;;;;5.80;2.40;;;;;;;16.97;25.60;101653.21;111170;1236;61149;-90
2023/05/08 08:14:37;;;;;;;4.50;2.40;;;;;;;16.97;24.68;101659.73;111063;1233;61045;-87
2023/05/08 08:17:04;;;;;;;4.80;2.50;;;;;;;16.89;24.19;101652.58;111069;1232;73973;-88
2023/05/08 08:19:31;;;;;;;4.80;2.70;;;;;;;16.78;24.52;101650.91;111161;1235;72428;-91
2023/05/08 08:21:58;;;;;;;5.20;2.60;;;;;;;16.72;25.23;101655.81;111156;1234;71334;-91
2023/05/08 08:24:27;;;;;;;5.00;2.60;;;;;;;16.75;24.95;101654.90;111187;1235;61303;-89
2023/05/08 08:26:54;;;;;;;5.40;2.60;;;;;;;16.78;24.34;101653.34;111181;1234;60532;-89
2023/05/08 08:29:23;;;;;;;5.20;2.70;;;;;;;16.79;24.26;101654.26;111171;1235;73099;-91
2023/05/08 08:31:50;;;;;;;4.50;2.30;;;;;;;16.85;23.98;101654.05;111129;1235;70681;-89
2023/05/08 08:34:17;;;;;;;3.90;2.50;;;;;;;16.83;23.97;101658.30;111162;1235;71620;-92
2023/05/08 08:36:44;;;;;;;6.20;2.70;;;;;;;16.75;24.42;101654.95;111164;1236;61070;-89
2023/05/08 08:39:11;;;;;;;5.50;2.90;;;;;;;16.69;24.37;101653.60;111241;1234;60403;-92
2023/05/08 08:41:41;;;;;;;5.70;2.70;;;;;;;16.60;24.28;101653.17;111099;1235;74909;-90
2023/05/08 08:44:08;;;;;;;3.60;2.30;;;;;;;16.52;24.07;101652.73;111262;1236;70803;-91
2023/05/08 08:46:38;;;;;;;3.90;2.30;;;;;;;16.46;24.56;101652.09;111247;1236;72673;-92
2023/05/08 08:49:07;;;;;;;3.80;2.40;;;;;;;16.50;24.05;101654.04;111321;1233;61193;-92
2023/05/08 08:51:42;;;;;;;5.40;2.50;;;;;;;16.47;24.10;101645.40;111229;1236;61236;-89
2023/05/08 08:54:11;;;;;;;5.00;2.60;;;;;;;16.54;24.49;101644.91;111297;1236;75627;-90
2023/05/08 08:56:41;;;;;;;4.60;2.90;;;;;;;16.66;24.42;101650.46;111122;1234;72812;-90
2023/05/08 08:59:08;;;;;;;6.30;2.80;;;;;;;16.77;23.75;101643.20;111211;1235;71712;-89
2023/05/08 09:01:38;;;;;;;4.50;2.90;;;;;;;16.95;24.66;101644.48;111157;1234;61219;-92
2023/05/08 09:04:05;;;;;;;5.00;2.90;;;;;;;17.24;25.09;101637.92;111123;1235;61342;-90
2023/05/08 09:06:36;;;;;;;4.40;2.90;;;;;;;17.57;24.98;101633.89;111120;1232;73739;-92
2023/05/08 09:09:03;;;;;;;5.90;3.00;;;;;;;17.76;23.26;101631.45;111291;1234;71762;-94
2023/05/08 09:11:30;;;;;;;5.00;2.80;;;;;;;17.72;23.12;101634.80;111438;1233;71587;-93
2023/05/08 09:13:58;;;;;;;5.10;2.70;;;;;;;17.59;23.13;101635.17;111286;1234;61209;-93
2023/05/08 09:16:26;;;;;;;5.20;2.60;;;;;;;17.57;23.29;101634.92;111251;1234;61306;-91
2023/05/08 09:18:55;;;;;;;3.60;2.30;;;;;;;17.70;24.03;101638.80;111362;1235;74582;-92
2023/05/08 09:21:22;;;;;;;5.10;2.70;;;;;;;17.94;23.90;101637.45;111326;1235;72352;-93
2023/05/08 09:23:58;;;;;;;6.60;2.70;;;;;;;18.00;23.25;101633.70;111316;1233;72326;-91
2023/05/08 09:26:32;;;;;;;3.60;2.50;;;;;;;17.94;22.98;101627.77;111215;1232;60054;-91
2023/05/08 09:29:16;;;;;;;5.60;2.40;;;;;;;17.83;23.62;101630.59;111085;1234;61215;-91
2023/05/08 09:31:45;;;;;;;6.30;2.50;;;;;;;17.81;23.67;101632.39;111202;1233;75538;-90
2023/05/08 09:34:27;;;;;;;4.00;2.40;;;;;;;17.94;23.93;101632.16;111293;1235;72904;-89
2023/05/08 09:36:54;;;;;;;5.70;2.40;;;;;;;18.13;23.56;101635.38;111274;1235;72794;-92
2023/05/08 09:39:25;;;;;;;3.70;2.30;;;;;;;18.23;23.22;101634.61;111264;1234;61193;-90
2023/05/08 09:42:03;;;;;;;6.20;2.50;;;;;;;18.29;23.58;101630.02;110880;1233;60959;-91
2023/05/08 09:44:46;;;;;;;5.00;2.40;;;;;;;18.42;23.10;101624.45;111285;1235;75748;-91
2023/05/08 09:47:13;;;;;;;;;;;;;;;18.63;23.45;101621.29;111214;1235;72172;-91
2023/05/08 09:50:01;;;;;;;4.00;2.50;;;;;;;18.83;23.16;101618.41;111285;1235;71390;-90
2023/05/08 09:52:28;;;;;;;5.10;2.80;;;;;;;18.84;22.85;101621.05;111155;1235;60999;-89
2023/05/08 09:55:08;;;;;;;3.90;2.60;;;;;;;18.86;22.41;101622.38;111213;1234;61113;-90
2023/05/08 09:57:38;;;;;;;4.90;2.50;;;;;;;18.77;22.75;101618.20;111047;1235;75728;-91
2023/05/08 10:00:07;;;;;;;3.30;2.10;;;;;;;18.74;22.96;101617.04;111167;1236;71751;-92
2023/05/08 10:03:06;;;;;;;4.60;2.30;;;;;;;18.74;22.41;101614.88;111707;1232;71941;-92
2023/05/08 10:05:37;;;;;;;3.90;2.40;;;;;;;18.71;22.09;101612.23;111184;1234;61212;-90
2023/05/08 10:08:21;;;;;;;4.10;2.50;;;;;;;18.56;21.80;101612.31;111112;1234;60365;-91
2023/05/08 10:10:49;;;;;;;5.90;2.60;;;;;;;18.33;21.52;101613.86;111262;1233;75595;-92
2023/05/08 10:13:16;;;;;;;3.30;2.30;;;;;;;18.23;21.86;101610.42;111141;1235;72213;-91
2023/05/08 10:15:44;;;;;;;4.80;2.70;;;;;;;18.26;22.16;101607.32;111217;1234;71558;-89
2023/05/08 10:18:11;;;;;;;4.60;2.30;;;;;;;18.36;22.15;101605.61;111051;1234;61135;-93
2023/05/08 10:20:39;;;;;;;4.20;2.60;;;;;;;18.34;21.95;101607.10;111079;1234;61009;-88
2023/05/08 10:23:10;;;;;;;6.80;2.50;;;;;;;18.30;22.06;101605.02;111179;1233;74773;-90
2023/05/08 10:25:53;;;;;;;4.40;2.80;;;;;;;18.27;22.44;101606.34;111199;1236;73624;-92
2023/05/08 10:28:40;;;;;;;4.70;2.50;;;;;;;18.33;22.03;101603.85;111226;1234;73043;-93
2023/05/08 10:31:07;;;;;;;3.60;2.40;;;;;;;18.44;22.37;101594.40;111281;1233;59582;-90
2023/05/08 10:33:36;;;;;;;5.80;2.50;;;;;;;18.59;22.05;101594.10;111197;1236;61133;-92
2023/05/08 10:36:03;;;;;;;4.60;2.30;;;;;;;18.64;22.03;101598.48;110975;1234;75262;-92
2023/05/08 10:38:30;;;;;;;4.30;2.00;;;;;;;18.74;22.32;101596.58;111053;1234;71753;-89
2023/05/08 10:41:01;;;;;;;5.00;2.30;;;;;;;18.90;21.99;101597.66;111130;1235;71379;-89
2023/05/08 10:43:30;;;;;;;4.00;2.00;;;;;;;19.07;22.44;101600.71;111022;1238;61098;-92
2023/05/08 10:46:17;;;;;;;4.20;2.40;;;;;;;19.12;21.35;101595.84;111156;1235;61117;-92
2023/05/08 10:49:08;;;;;;;3.30;2.00;;;;;;;19.07;20.92;101597.64;111148;1236;74518;-90
2023/05/08 10:51:39;;;;;;;;;;;;;;;18.81;20.64;101596.52;111145;1235;73483;-92
2023/05/08 10:54:23;;;;;;;3.80;2.10;;;;;;;18.65;20.88;101601.73;111292;1234;70660;-93
2023/05/08 10:56:50;;;;;;;5.20;2.30;;;;;;;18.63;20.95;101600.77;111182;1234;61111;-89
2023/05/08 10:59:18;;;;;;;3.90;2.40;;;;;;;18.65;20.82;101597.61;111261;1234;61712;-90
2023/05/08 11:01:48;;;;;;;4.00;2.20;;;;;;;18.55;21.13;101598.74;111237;1235;74862;-89
2023/05/08 11:04:21;;;;;;;4.60;2.40;;;;;;;18.49;21.40;101600.48;110978;1235;73941;-92
2023/05/08 11:06:51;;;;;;;4.00;2.10;;;;;;;18.42;21.17;101609.02;111251;1235;72714;-91
2023/05/08 11:09:25;;;;;;;2.80;2.00;;;;;;;18.43;21.47;101607.06;111168;1235;61065;-93
2023/05/08 11:12:28;;;;;;;6.10;2.40;;;;;;;18.43;21.61;101606.54;111179;1234;60291;-92
2023/05/08 11:15:05;;;;;;;5.20;2.30;;;;;;;18.40;21.56;101609.70;111099;1235;75662;-90
2023/05/08 11:17:32;;;;;;;4.30;2.10;;;;;;;18.45;21.54;101612.41;111131;1235;72901;-92
2023/05/08 11:20:04;;;;;;;4.40;2.10;;;;;;;18.51;21.07;101606.20;111186;1234;71379;-94
2023/05/08 11:22:34;;;;;;;4.60;2.20;;;;;;;18.52;20.77;101606.08;111369;1233;60125;-91
2023/05/08 11:25:08;;;;;;;4.10;2.10;;;;;;;18.46;21.13;101600.39;111252;1235;60961;-90
2023/05/08 11:27:48;;;;;;;5.90;2.20;;;;;;;18.32;21.08;101608.08;111298;1235;74223;-92
2023/05/08 11:30:46;;;;;;;4.90;2.40;;;;;;;18.23;21.22;101600.16;111331;1237;70720;-90
2023/05/08 11:33:14;;;;;;;4.30;2.20;;;;;;;18.27;21.63;101602.11;111097;1234;71469;-91